Airfield :
LOGIN :

Register | Disclaimer

   EN    FR    IT 

 










Legend :    VFR   Marginal VFR   IFR   Intensive IFR   Very Intensive IFR
Visi :
Ceiling :
>= 8 km
>= 3000ft
5 to 8 km
1000 to 3000 ft
1500m to 5 km
500 to 1000 ft
800 to 1500m
200 to 500 ft
< 800m
< 200 ft
Symbols :   Thunderstorms  Fog  Heavy snow  Heavy precipitations  Wind > 20 kt
SIGMETs :     Misc.  Thunderstorms  Icing  Turbulence  Mountain Waves  Volcanic Ashes






- Airport Elevation : 285 ft
- IATA code : GOZ


LBGO - Gorna Oryahovitsa

CURRENT METAR :
  • 281630Z AUTO 33003KT 9999 SCT047/// BKN066/// OVC100/// 20/14 Q1019 NOSIG

EXPIRED METARs :
  • 281600Z AUTO 33005KT 9999 OVC043/// 20/14 Q1019 NOSIG
  • 281530Z AUTO 31008KT 280V340 9999 BKN040/// OVC047/// 21/14 Q1018 NOSIG
  • 281500Z AUTO 04007KT 9999 -RA OVC047/// 21/14 Q1018 NOSIG
  • 281430Z AUTO VRB02KT 9999 OVC049/// 22/13 Q1018 NOSIG
  • 281400Z AUTO 25003KT 220V300 9999 OVC052/// 23/13 Q1018 TEMPO SHRA SCT030TCU

TAF TAF LBGO
Valid from the 28 at 12:00 until the 29 at 12:00 UTC


281100Z 2812/2912 10010KT 9999 SCT040 BKN070
TEMPO 2812/2816 5000 SHRA SCT015 FEW030CB BKN045
TEMPO 2820/2902 5000 RA SCT015 BKN030 OVC045



MET'MAP, your aeronautical weather chart ! - Copyright ORBIFLY December 2007 - Disclaimer

ORBIFLY MET'MAP TEAM :

Programming & Development : Alexandra Zaïnal
Concept & original design : Baudouin d'Aumeries
Assistance for programming : Marc-Olivier Méhu
Technical & hardware support : Manuel Goepfert

Contact : metmap@orbifly.com




SOURCES & CREDITS :

   NOAA